Terminal Aerodrome Forecast
Issued by NWS Sterling, VA

Home | Current Version | Previous Version | Text Only | Print | Product List | Glossary On
Versions: 1 2 3 4 5 6 7 8 9 10 11 12 13 14 15 16 17 18 19 20 21 22
485
FTUS41 KLWX 210100 AAA
TAFCHO
TAF AMD
KCHO 210100Z 2101/2124 13003KT P6SM OVC007
     FM210500 00000KT 2SM -DZ BR OVC003
     FM211500 00000KT 4SM BR SCT003 OVC008
     FM211700 18004KT P6SM SCT008 BKN015=

USA.gov is the U.S. government's official web portal to all federal, state and local government web resources and services.